sensor_id;sensor_type;location;lat;lon;timestamp;temperature;humidity
71173;DHT22;58875;51.996;4.504;2023-12-07T00:01:05;2.45;82.98
71173;DHT22;58875;51.996;4.504;2023-12-07T00:03:33;2.36;82.97
71173;DHT22;58875;51.996;4.504;2023-12-07T00:05:59;2.34;83.00
71173;DHT22;58875;51.996;4.504;2023-12-07T00:08:27;2.39;83.13
71173;DHT22;58875;51.996;4.504;2023-12-07T00:10:58;2.35;82.89
71173;DHT22;58875;51.996;4.504;2023-12-07T00:13:23;2.25;82.82
71173;DHT22;58875;51.996;4.504;2023-12-07T00:16:04;2.22;82.85
71173;DHT22;58875;51.996;4.504;2023-12-07T00:18:37;2.20;82.86
71173;DHT22;58875;51.996;4.504;2023-12-07T00:21:03;2.14;82.77
71173;DHT22;58875;51.996;4.504;2023-12-07T00:23:32;2.12;82.90
71173;DHT22;58875;51.996;4.504;2023-12-07T00:26:00;2.11;82.87
71173;DHT22;58875;51.996;4.504;2023-12-07T00:28:29;2.05;82.86
71173;DHT22;58875;51.996;4.504;2023-12-07T00:30:55;2.08;82.93
71173;DHT22;58875;51.996;4.504;2023-12-07T00:33:24;2.05;82.95
71173;DHT22;58875;51.996;4.504;2023-12-07T00:35:52;2.08;82.90
71173;DHT22;58875;51.996;4.504;2023-12-07T00:38:21;2.01;82.88
71173;DHT22;58875;51.996;4.504;2023-12-07T00:40:47;2.01;82.92
71173;DHT22;58875;51.996;4.504;2023-12-07T00:43:12;1.95;82.87
71173;DHT22;58875;51.996;4.504;2023-12-07T00:45:43;1.95;82.87
71173;DHT22;58875;51.996;4.504;2023-12-07T00:48:28;1.91;82.86
71173;DHT22;58875;51.996;4.504;2023-12-07T00:50:56;1.88;82.89
71173;DHT22;58875;51.996;4.504;2023-12-07T00:53:32;1.84;82.85
71173;DHT22;58875;51.996;4.504;2023-12-07T00:55:58;1.87;82.86
71173;DHT22;58875;51.996;4.504;2023-12-07T00:58:34;1.83;82.95
71173;DHT22;58875;51.996;4.504;2023-12-07T01:01:03;1.81;83.09
71173;DHT22;58875;51.996;4.504;2023-12-07T01:03:28;1.84;83.12
71173;DHT22;58875;51.996;4.504;2023-12-07T01:05:58;1.84;82.99
71173;DHT22;58875;51.996;4.504;2023-12-07T01:08:23;1.83;83.11
71173;DHT22;58875;51.996;4.504;2023-12-07T01:10:49;1.85;83.10
71173;DHT22;58875;51.996;4.504;2023-12-07T01:13:15;1.84;83.05
71173;DHT22;58875;51.996;4.504;2023-12-07T01:15:41;1.87;83.07
71173;DHT22;58875;51.996;4.504;2023-12-07T01:18:06;1.90;83.04
71173;DHT22;58875;51.996;4.504;2023-12-07T01:20:32;1.88;83.14
71173;DHT22;58875;51.996;4.504;2023-12-07T01:22:57;1.88;83.03
71173;DHT22;58875;51.996;4.504;2023-12-07T01:25:23;1.87;83.11
71173;DHT22;58875;51.996;4.504;2023-12-07T01:27:49;1.88;83.32
71173;DHT22;58875;51.996;4.504;2023-12-07T01:30:15;1.88;83.31
71173;DHT22;58875;51.996;4.504;2023-12-07T01:32:47;1.93;83.27
71173;DHT22;58875;51.996;4.504;2023-12-07T01:35:23;1.91;83.18
71173;DHT22;58875;51.996;4.504;2023-12-07T01:37:48;1.90;83.19
71173;DHT22;58875;51.996;4.504;2023-12-07T01:40:14;1.95;83.36
71173;DHT22;58875;51.996;4.504;2023-12-07T01:42:50;1.95;83.26
71173;DHT22;58875;51.996;4.504;2023-12-07T01:45:16;1.97;83.30
71173;DHT22;58875;51.996;4.504;2023-12-07T01:47:43;2.00;83.27
71173;DHT22;58875;51.996;4.504;2023-12-07T01:50:19;2.01;83.26
71173;DHT22;58875;51.996;4.504;2023-12-07T01:52:54;1.98;83.20
71173;DHT22;58875;51.996;4.504;2023-12-07T01:55:22;1.98;83.22
71173;DHT22;58875;51.996;4.504;2023-12-07T01:57:48;1.98;83.15
71173;DHT22;58875;51.996;4.504;2023-12-07T02:00:15;2.00;83.18
71173;DHT22;58875;51.996;4.504;2023-12-07T02:02:41;2.01;83.29
71173;DHT22;58875;51.996;4.504;2023-12-07T02:05:07;2.05;83.28
71173;DHT22;58875;51.996;4.504;2023-12-07T02:07:34;2.05;83.25
71173;DHT22;58875;51.996;4.504;2023-12-07T02:09:59;2.10;83.34
71173;DHT22;58875;51.996;4.504;2023-12-07T02:12:27;2.14;83.33
71173;DHT22;58875;51.996;4.504;2023-12-07T02:14:55;2.18;83.34
71173;DHT22;58875;51.996;4.504;2023-12-07T02:23:01;2.24;83.47
71173;DHT22;58875;51.996;4.504;2023-12-07T02:25:57;2.31;83.39
71173;DHT22;58875;51.996;4.504;2023-12-07T02:28:27;2.25;83.40
71173;DHT22;58875;51.996;4.504;2023-12-07T02:30:53;2.29;83.44
71173;DHT22;58875;51.996;4.504;2023-12-07T02:33:19;2.31;83.39
71173;DHT22;58875;51.996;4.504;2023-12-07T02:35:44;2.26;83.35
71173;DHT22;58875;51.996;4.504;2023-12-07T02:38:11;2.26;83.31
71173;DHT22;58875;51.996;4.504;2023-12-07T02:40:40;2.26;83.39
71173;DHT22;58875;51.996;4.504;2023-12-07T02:43:07;2.25;83.33
71173;DHT22;58875;51.996;4.504;2023-12-07T02:45:33;2.24;83.30
71173;DHT22;58875;51.996;4.504;2023-12-07T02:47:58;2.25;83.36
71173;DHT22;58875;51.996;4.504;2023-12-07T02:50:24;2.21;83.30
71173;DHT22;58875;51.996;4.504;2023-12-07T02:52:50;2.17;83.25
71173;DHT22;58875;51.996;4.504;2023-12-07T02:55:16;2.12;83.39
71173;DHT22;58875;51.996;4.504;2023-12-07T02:57:41;2.12;83.42
71173;DHT22;58875;51.996;4.504;2023-12-07T03:00:10;2.10;83.27
71173;DHT22;58875;51.996;4.504;2023-12-07T03:02:40;2.03;83.27
71173;DHT22;58875;51.996;4.504;2023-12-07T03:05:06;1.98;83.30
71173;DHT22;58875;51.996;4.504;2023-12-07T03:07:35;1.95;83.32
71173;DHT22;58875;51.996;4.504;2023-12-07T03:10:01;1.98;83.39
71173;DHT22;58875;51.996;4.504;2023-12-07T03:12:28;1.97;83.29
71173;DHT22;58875;51.996;4.504;2023-12-07T03:14:54;1.93;83.27
71173;DHT22;58875;51.996;4.504;2023-12-07T03:17:23;1.94;83.32
71173;DHT22;58875;51.996;4.504;2023-12-07T03:19:48;1.91;83.38
71173;DHT22;58875;51.996;4.504;2023-12-07T03:22:14;1.88;83.33
71173;DHT22;58875;51.996;4.504;2023-12-07T03:24:50;1.87;83.58
71173;DHT22;58875;51.996;4.504;2023-12-07T03:27:16;1.93;83.72
71173;DHT22;58875;51.996;4.504;2023-12-07T03:29:42;1.98;83.83
71173;DHT22;58875;51.996;4.504;2023-12-07T03:32:10;2.04;83.88
71173;DHT22;58875;51.996;4.504;2023-12-07T03:34:35;2.11;84.10
71173;DHT22;58875;51.996;4.504;2023-12-07T03:37:01;2.15;84.09
71173;DHT22;58875;51.996;4.504;2023-12-07T03:39:32;2.24;84.14
71173;DHT22;58875;51.996;4.504;2023-12-07T03:41:58;2.28;84.14
71173;DHT22;58875;51.996;4.504;2023-12-07T03:44:24;2.31;84.11
71173;DHT22;58875;51.996;4.504;2023-12-07T03:46:52;2.31;84.15
71173;DHT22;58875;51.996;4.504;2023-12-07T03:49:18;2.31;84.09
71173;DHT22;58875;51.996;4.504;2023-12-07T03:51:43;2.32;84.20
71173;DHT22;58875;51.996;4.504;2023-12-07T03:54:09;2.36;84.21
71173;DHT22;58875;51.996;4.504;2023-12-07T03:56:34;2.38;84.04
71173;DHT22;58875;51.996;4.504;2023-12-07T03:59:00;2.36;84.00
71173;DHT22;58875;51.996;4.504;2023-12-07T04:01:28;2.38;84.21
71173;DHT22;58875;51.996;4.504;2023-12-07T04:03:55;2.34;84.09
71173;DHT22;58875;51.996;4.504;2023-12-07T04:06:23;2.34;84.08
71173;DHT22;58875;51.996;4.504;2023-12-07T04:08:51;2.34;83.95
71173;DHT22;58875;51.996;4.504;2023-12-07T04:11:18;2.31;84.10
71173;DHT22;58875;51.996;4.504;2023-12-07T04:13:43;2.36;84.12
71173;DHT22;58875;51.996;4.504;2023-12-07T04:16:10;2.34;83.95
71173;DHT22;58875;51.996;4.504;2023-12-07T04:18:36;2.34;84.16
71173;DHT22;58875;51.996;4.504;2023-12-07T04:21:03;2.31;84.30
71173;DHT22;58875;51.996;4.504;2023-12-07T04:23:31;2.31;84.38
71173;DHT22;58875;51.996;4.504;2023-12-07T04:25:57;2.32;84.37
71173;DHT22;58875;51.996;4.504;2023-12-07T04:28:23;2.34;84.28
71173;DHT22;58875;51.996;4.504;2023-12-07T04:30:48;2.28;84.17
71173;DHT22;58875;51.996;4.504;2023-12-07T04:33:14;2.31;84.30
71173;DHT22;58875;51.996;4.504;2023-12-07T04:35:42;2.34;84.21
71173;DHT22;58875;51.996;4.504;2023-12-07T04:38:08;2.32;84.16
71173;DHT22;58875;51.996;4.504;2023-12-07T04:40:33;2.26;84.48
71173;DHT22;58875;51.996;4.504;2023-12-07T04:42:59;2.26;84.59
71173;DHT22;58875;51.996;4.504;2023-12-07T04:45:28;2.22;84.76
71173;DHT22;58875;51.996;4.504;2023-12-07T04:47:53;2.20;85.03
71173;DHT22;58875;51.996;4.504;2023-12-07T04:50:31;2.22;84.98
71173;DHT22;58875;51.996;4.504;2023-12-07T04:52:59;2.18;85.06
71173;DHT22;58875;51.996;4.504;2023-12-07T04:55:27;2.17;85.49
71173;DHT22;58875;51.996;4.504;2023-12-07T04:58:06;2.20;85.59
71173;DHT22;58875;51.996;4.504;2023-12-07T05:00:48;2.17;85.54
71173;DHT22;58875;51.996;4.504;2023-12-07T05:03:20;2.07;85.73
71173;DHT22;58875;51.996;4.504;2023-12-07T05:05:46;2.03;85.73
71173;DHT22;58875;51.996;4.504;2023-12-07T05:08:14;2.03;85.72
71173;DHT22;58875;51.996;4.504;2023-12-07T05:10:50;2.07;85.89
71173;DHT22;58875;51.996;4.504;2023-12-07T05:13:18;2.08;85.81
71173;DHT22;58875;51.996;4.504;2023-12-07T05:15:44;2.11;86.19
71173;DHT22;58875;51.996;4.504;2023-12-07T05:18:12;2.15;85.80
71173;DHT22;58875;51.996;4.504;2023-12-07T05:20:38;2.12;85.79
71173;DHT22;58875;51.996;4.504;2023-12-07T05:23:05;2.15;86.03
71173;DHT22;58875;51.996;4.504;2023-12-07T05:25:38;2.17;85.90
71173;DHT22;58875;51.996;4.504;2023-12-07T05:28:07;2.21;86.02
71173;DHT22;58875;51.996;4.504;2023-12-07T05:30:43;2.22;85.97
71173;DHT22;58875;51.996;4.504;2023-12-07T05:36:33;2.18;85.95
71173;DHT22;58875;51.996;4.504;2023-12-07T05:38:59;2.20;86.07
71173;DHT22;58875;51.996;4.504;2023-12-07T05:41:26;2.17;85.96
71173;DHT22;58875;51.996;4.504;2023-12-07T05:43:55;2.05;86.01
71173;DHT22;58875;51.996;4.504;2023-12-07T05:46:35;1.90;86.19
71173;DHT22;58875;51.996;4.504;2023-12-07T05:49:01;1.94;86.25
71173;DHT22;58875;51.996;4.504;2023-12-07T05:51:32;1.95;86.33
71173;DHT22;58875;51.996;4.504;2023-12-07T05:54:00;1.90;86.44
71173;DHT22;58875;51.996;4.504;2023-12-07T05:56:26;1.97;86.51
71173;DHT22;58875;51.996;4.504;2023-12-07T05:58:51;1.88;86.25
71173;DHT22;58875;51.996;4.504;2023-12-07T06:01:18;1.91;86.59
71173;DHT22;58875;51.996;4.504;2023-12-07T06:03:47;1.94;86.26
71173;DHT22;58875;51.996;4.504;2023-12-07T06:06:13;1.95;86.22
71173;DHT22;58875;51.996;4.504;2023-12-07T06:08:38;1.90;86.45
71173;DHT22;58875;51.996;4.504;2023-12-07T06:11:04;1.91;86.40
71173;DHT22;58875;51.996;4.504;2023-12-07T06:13:31;1.95;86.20
71173;DHT22;58875;51.996;4.504;2023-12-07T06:15:56;1.91;86.09
71173;DHT22;58875;51.996;4.504;2023-12-07T06:18:39;1.88;86.14
71173;DHT22;58875;51.996;4.504;2023-12-07T06:21:05;1.95;86.44
71173;DHT22;58875;51.996;4.504;2023-12-07T06:23:43;1.91;86.31
71173;DHT22;58875;51.996;4.504;2023-12-07T06:26:11;1.88;86.51
71173;DHT22;58875;51.996;4.504;2023-12-07T06:28:37;1.83;86.50
71173;DHT22;58875;51.996;4.504;2023-12-07T06:31:06;1.75;86.59
71173;DHT22;58875;51.996;4.504;2023-12-07T06:33:34;1.73;86.70
71173;DHT22;58875;51.996;4.504;2023-12-07T06:36:03;1.78;86.97
71173;DHT22;58875;51.996;4.504;2023-12-07T06:38:29;1.84;86.98
71173;DHT22;58875;51.996;4.504;2023-12-07T06:40:57;1.88;86.78
71173;DHT22;58875;51.996;4.504;2023-12-07T06:43:23;1.88;86.85
71173;DHT22;58875;51.996;4.504;2023-12-07T06:45:49;1.94;86.66
71173;DHT22;58875;51.996;4.504;2023-12-07T06:48:17;1.93;86.74
71173;DHT22;58875;51.996;4.504;2023-12-07T06:50:46;1.97;86.75
71173;DHT22;58875;51.996;4.504;2023-12-07T06:53:14;1.97;86.96
71173;DHT22;58875;51.996;4.504;2023-12-07T06:55:39;1.90;87.09
71173;DHT22;58875;51.996;4.504;2023-12-07T06:58:06;1.97;87.05
71173;DHT22;58875;51.996;4.504;2023-12-07T07:00:32;2.03;86.87
71173;DHT22;58875;51.996;4.504;2023-12-07T07:02:58;2.11;87.07
71173;DHT22;58875;51.996;4.504;2023-12-07T07:05:23;2.17;86.74
71173;DHT22;58875;51.996;4.504;2023-12-07T07:07:49;2.04;86.96
71173;DHT22;58875;51.996;4.504;2023-12-07T07:10:16;2.03;86.87
71173;DHT22;58875;51.996;4.504;2023-12-07T07:12:42;2.12;87.08
71173;DHT22;58875;51.996;4.504;2023-12-07T07:15:08;2.21;87.22
71173;DHT22;58875;51.996;4.504;2023-12-07T07:17:34;2.22;86.89
71173;DHT22;58875;51.996;4.504;2023-12-07T07:20:00;2.24;86.91
71173;DHT22;58875;51.996;4.504;2023-12-07T07:22:25;2.32;87.08
71173;DHT22;58875;51.996;4.504;2023-12-07T07:24:56;2.26;86.77
71173;DHT22;58875;51.996;4.504;2023-12-07T07:27:21;2.34;86.90
71173;DHT22;58875;51.996;4.504;2023-12-07T07:29:50;2.29;87.23
71173;DHT22;58875;51.996;4.504;2023-12-07T07:32:28;2.29;87.07
71173;DHT22;58875;51.996;4.504;2023-12-07T07:35:01;2.32;86.90
71173;DHT22;58875;51.996;4.504;2023-12-07T07:37:29;2.31;86.97
71173;DHT22;58875;51.996;4.504;2023-12-07T07:39:58;2.32;87.13
71173;DHT22;58875;51.996;4.504;2023-12-07T07:42:25;2.41;87.10
71173;DHT22;58875;51.996;4.504;2023-12-07T07:44:51;2.41;87.17
71173;DHT22;58875;51.996;4.504;2023-12-07T07:47:16;2.39;86.84
71173;DHT22;58875;51.996;4.504;2023-12-07T07:49:43;2.38;86.97
71173;DHT22;58875;51.996;4.504;2023-12-07T07:52:08;2.42;87.01
71173;DHT22;58875;51.996;4.504;2023-12-07T07:54:34;2.48;87.13
71173;DHT22;58875;51.996;4.504;2023-12-07T07:57:03;2.50;87.01
71173;DHT22;58875;51.996;4.504;2023-12-07T07:59:29;2.53;86.74
71173;DHT22;58875;51.996;4.504;2023-12-07T08:01:56;2.56;86.79
71173;DHT22;58875;51.996;4.504;2023-12-07T08:04:22;2.35;86.90
71173;DHT22;58875;51.996;4.504;2023-12-07T08:06:48;2.39;87.07
71173;DHT22;58875;51.996;4.504;2023-12-07T08:09:14;2.39;87.11
71173;DHT22;58875;51.996;4.504;2023-12-07T08:11:42;2.39;87.17
71173;DHT22;58875;51.996;4.504;2023-12-07T08:14:08;2.35;87.04
71173;DHT22;58875;51.996;4.504;2023-12-07T08:16:34;2.34;87.40
71173;DHT22;58875;51.996;4.504;2023-12-07T08:18:59;2.41;87.47
71173;DHT22;58875;51.996;4.504;2023-12-07T08:21:25;2.42;87.35
71173;DHT22;58875;51.996;4.504;2023-12-07T08:23:51;2.50;87.33
71173;DHT22;58875;51.996;4.504;2023-12-07T08:26:17;2.53;87.38
71173;DHT22;58875;51.996;4.504;2023-12-07T08:28:43;2.53;87.34
71173;DHT22;58875;51.996;4.504;2023-12-07T08:31:12;2.55;87.48
71173;DHT22;58875;51.996;4.504;2023-12-07T08:33:38;2.57;87.39
71173;DHT22;58875;51.996;4.504;2023-12-07T08:36:08;2.63;87.33
71173;DHT22;58875;51.996;4.504;2023-12-07T08:38:39;2.72;87.35
71173;DHT22;58875;51.996;4.504;2023-12-07T08:41:07;2.67;87.10
71173;DHT22;58875;51.996;4.504;2023-12-07T08:43:32;2.63;87.22
71173;DHT22;58875;51.996;4.504;2023-12-07T08:45:58;2.67;87.47
71173;DHT22;58875;51.996;4.504;2023-12-07T08:48:24;2.75;87.33
71173;DHT22;58875;51.996;4.504;2023-12-07T08:50:49;2.79;87.31
71173;DHT22;58875;51.996;4.504;2023-12-07T08:53:15;2.76;87.28
71173;DHT22;58875;51.996;4.504;2023-12-07T08:55:40;2.73;87.40
71173;DHT22;58875;51.996;4.504;2023-12-07T08:58:06;2.82;87.61
71173;DHT22;58875;51.996;4.504;2023-12-07T09:00:32;2.87;87.43
71173;DHT22;58875;51.996;4.504;2023-12-07T09:02:58;2.89;87.40
71173;DHT22;58875;51.996;4.504;2023-12-07T09:05:27;2.72;87.16
71173;DHT22;58875;51.996;4.504;2023-12-07T09:07:53;2.67;87.80
71173;DHT22;58875;51.996;4.504;2023-12-07T09:10:20;2.72;87.90
71173;DHT22;58875;51.996;4.504;2023-12-07T09:12:45;2.72;87.78
71173;DHT22;58875;51.996;4.504;2023-12-07T09:15:11;2.83;88.11
71173;DHT22;58875;51.996;4.504;2023-12-07T09:17:41;2.86;87.90
71173;DHT22;58875;51.996;4.504;2023-12-07T09:20:08;2.87;87.80
71173;DHT22;58875;51.996;4.504;2023-12-07T09:22:42;3.00;88.09
71173;DHT22;58875;51.996;4.504;2023-12-07T09:25:08;3.00;88.00
71173;DHT22;58875;51.996;4.504;2023-12-07T09:27:35;2.99;87.98
71173;DHT22;58875;51.996;4.504;2023-12-07T09:30:07;3.04;87.98
71173;DHT22;58875;51.996;4.504;2023-12-07T09:32:42;3.07;88.11
71173;DHT22;58875;51.996;4.504;2023-12-07T09:35:10;3.11;87.94
71173;DHT22;58875;51.996;4.504;2023-12-07T09:37:45;3.08;88.15
71173;DHT22;58875;51.996;4.504;2023-12-07T09:40:19;3.21;88.05
71173;DHT22;58875;51.996;4.504;2023-12-07T09:42:46;3.24;87.93
71173;DHT22;58875;51.996;4.504;2023-12-07T09:45:13;3.31;87.79
71173;DHT22;58875;51.996;4.504;2023-12-07T09:47:47;3.30;87.64
71173;DHT22;58875;51.996;4.504;2023-12-07T09:50:16;3.32;87.67
71173;DHT22;58875;51.996;4.504;2023-12-07T09:52:43;3.44;87.68
71173;DHT22;58875;51.996;4.504;2023-12-07T09:55:09;3.55;87.64
71173;DHT22;58875;51.996;4.504;2023-12-07T09:57:37;3.61;87.46
71173;DHT22;58875;51.996;4.504;2023-12-07T10:00:04;3.69;87.39
71173;DHT22;58875;51.996;4.504;2023-12-07T10:02:30;3.78;87.40
71173;DHT22;58875;51.996;4.504;2023-12-07T10:05:06;3.75;86.98
71173;DHT22;58875;51.996;4.504;2023-12-07T10:07:33;3.79;87.26
71173;DHT22;58875;51.996;4.504;2023-12-07T10:10:04;3.82;87.01
71173;DHT22;58875;51.996;4.504;2023-12-07T10:12:30;3.79;87.12
71173;DHT22;58875;51.996;4.504;2023-12-07T10:14:56;3.85;87.06
71173;DHT22;58875;51.996;4.504;2023-12-07T10:17:22;3.75;87.00
71173;DHT22;58875;51.996;4.504;2023-12-07T10:20:07;3.83;87.35
71173;DHT22;58875;51.996;4.504;2023-12-07T10:22:39;3.89;87.23
71173;DHT22;58875;51.996;4.504;2023-12-07T10:25:05;3.95;87.13
71173;DHT22;58875;51.996;4.504;2023-12-07T10:27:33;3.96;86.85
71173;DHT22;58875;51.996;4.504;2023-12-07T10:30:03;3.92;86.96
71173;DHT22;58875;51.996;4.504;2023-12-07T10:32:29;3.92;86.72
71173;DHT22;58875;51.996;4.504;2023-12-07T10:34:54;4.00;86.97
71173;DHT22;58875;51.996;4.504;2023-12-07T10:37:23;4.11;86.86
71173;DHT22;58875;51.996;4.504;2023-12-07T10:39:49;4.17;86.64
71173;DHT22;58875;51.996;4.504;2023-12-07T10:42:16;4.19;86.56
71173;DHT22;58875;51.996;4.504;2023-12-07T10:44:46;4.16;86.61
71173;DHT22;58875;51.996;4.504;2023-12-07T10:47:16;4.33;86.66
71173;DHT22;58875;51.996;4.504;2023-12-07T10:49:46;4.40;86.52
71173;DHT22;58875;51.996;4.504;2023-12-07T10:52:17;4.33;85.94
71173;DHT22;58875;51.996;4.504;2023-12-07T10:54:56;4.36;86.04
71173;DHT22;58875;51.996;4.504;2023-12-07T10:57:27;4.32;86.15
71173;DHT22;58875;51.996;4.504;2023-12-07T10:59:55;4.17;85.92
71173;DHT22;58875;51.996;4.504;2023-12-07T11:02:23;4.27;86.27
71173;DHT22;58875;51.996;4.504;2023-12-07T11:04:52;4.26;85.86
71173;DHT22;58875;51.996;4.504;2023-12-07T11:07:21;4.30;86.02
71173;DHT22;58875;51.996;4.504;2023-12-07T11:09:58;4.19;85.59
71173;DHT22;58875;51.996;4.504;2023-12-07T11:12:36;4.14;85.78
71173;DHT22;58875;51.996;4.504;2023-12-07T11:15:05;4.14;85.70
71173;DHT22;58875;51.996;4.504;2023-12-07T11:17:49;4.23;85.70
71173;DHT22;58875;51.996;4.504;2023-12-07T11:20:19;4.26;85.67
71173;DHT22;58875;51.996;4.504;2023-12-07T11:22:46;4.23;85.23
71173;DHT22;58875;51.996;4.504;2023-12-07T11:25:17;4.32;85.79
71173;DHT22;58875;51.996;4.504;2023-12-07T11:27:44;4.32;85.30
71173;DHT22;58875;51.996;4.504;2023-12-07T11:30:14;4.32;85.13
71173;DHT22;58875;51.996;4.504;2023-12-07T11:32:40;4.29;85.08
71173;DHT22;58875;51.996;4.504;2023-12-07T11:35:25;4.30;85.16
71173;DHT22;58875;51.996;4.504;2023-12-07T11:40:39;4.44;85.29
71173;DHT22;58875;51.996;4.504;2023-12-07T11:43:05;4.53;84.95
71173;DHT22;58875;51.996;4.504;2023-12-07T11:45:39;4.60;84.89
71173;DHT22;58875;51.996;4.504;2023-12-07T11:48:09;4.58;84.37
71173;DHT22;58875;51.996;4.504;2023-12-07T11:50:34;4.61;84.25
71173;DHT22;58875;51.996;4.504;2023-12-07T11:53:00;4.64;84.38
71173;DHT22;58875;51.996;4.504;2023-12-07T11:55:37;4.67;84.03
71173;DHT22;58875;51.996;4.504;2023-12-07T11:58:03;4.75;83.94
71173;DHT22;58875;51.996;4.504;2023-12-07T12:00:33;4.65;83.59
71173;DHT22;58875;51.996;4.504;2023-12-07T12:02:59;4.57;83.77
71173;DHT22;58875;51.996;4.504;2023-12-07T12:05:24;4.62;84.07
71173;DHT22;58875;51.996;4.504;2023-12-07T12:07:56;4.61;84.00
71173;DHT22;58875;51.996;4.504;2023-12-07T12:10:28;4.60;84.02
71173;DHT22;58875;51.996;4.504;2023-12-07T12:12:57;4.56;84.25
71173;DHT22;58875;51.996;4.504;2023-12-07T12:15:22;4.54;83.83
71173;DHT22;58875;51.996;4.504;2023-12-07T12:17:50;4.47;83.78
71173;DHT22;58875;51.996;4.504;2023-12-07T12:20:19;4.29;83.64
71173;DHT22;58875;51.996;4.504;2023-12-07T12:22:45;4.37;84.24
71173;DHT22;58875;51.996;4.504;2023-12-07T12:25:11;4.40;84.04
71173;DHT22;58875;51.996;4.504;2023-12-07T12:27:38;4.41;84.02
71173;DHT22;58875;51.996;4.504;2023-12-07T12:30:04;4.53;83.96
71173;DHT22;58875;51.996;4.504;2023-12-07T12:32:45;4.51;83.78
71173;DHT22;58875;51.996;4.504;2023-12-07T12:35:15;4.53;83.99
71173;DHT22;58875;51.996;4.504;2023-12-07T12:37:45;4.51;83.66
71173;DHT22;58875;51.996;4.504;2023-12-07T12:40:13;4.40;83.32
71173;DHT22;58875;51.996;4.504;2023-12-07T12:42:46;4.44;83.83
71173;DHT22;58875;51.996;4.504;2023-12-07T12:45:12;4.48;83.76
71173;DHT22;58875;51.996;4.504;2023-12-07T12:47:42;4.47;83.79
71173;DHT22;58875;51.996;4.504;2023-12-07T12:50:37;4.56;83.69
71173;DHT22;58875;51.996;4.504;2023-12-07T12:53:10;4.60;83.74
71173;DHT22;58875;51.996;4.504;2023-12-07T12:55:41;4.64;83.47
71173;DHT22;58875;51.996;4.504;2023-12-07T12:58:10;4.51;83.55
71173;DHT22;58875;51.996;4.504;2023-12-07T13:00:40;4.61;83.70
71173;DHT22;58875;51.996;4.504;2023-12-07T13:03:12;4.69;83.88
71173;DHT22;58875;51.996;4.504;2023-12-07T13:05:41;4.72;83.56
71173;DHT22;58875;51.996;4.504;2023-12-07T13:08:17;4.62;83.27
71173;DHT22;58875;51.996;4.504;2023-12-07T13:10:49;4.61;83.61
71173;DHT22;58875;51.996;4.504;2023-12-07T13:13:18;4.60;83.37
71173;DHT22;58875;51.996;4.504;2023-12-07T13:15:46;4.67;83.62
71173;DHT22;58875;51.996;4.504;2023-12-07T13:18:12;4.62;83.35
71173;DHT22;58875;51.996;4.504;2023-12-07T13:20:46;4.62;83.49
71173;DHT22;58875;51.996;4.504;2023-12-07T13:23:29;4.67;83.56
71173;DHT22;58875;51.996;4.504;2023-12-07T13:25:57;4.67;83.48
71173;DHT22;58875;51.996;4.504;2023-12-07T13:28:25;4.62;83.48
71173;DHT22;58875;51.996;4.504;2023-12-07T13:30:53;4.60;83.36
71173;DHT22;58875;51.996;4.504;2023-12-07T13:33:19;4.48;83.60
71173;DHT22;58875;51.996;4.504;2023-12-07T13:35:45;4.50;83.73
71173;DHT22;58875;51.996;4.504;2023-12-07T13:38:11;4.57;84.12
71173;DHT22;58875;51.996;4.504;2023-12-07T13:40:36;4.53;83.80
71173;DHT22;58875;51.996;4.504;2023-12-07T13:43:03;4.58;84.14
71173;DHT22;58875;51.996;4.504;2023-12-07T13:45:31;4.57;83.92
71173;DHT22;58875;51.996;4.504;2023-12-07T13:48:24;4.62;83.90
71173;DHT22;58875;51.996;4.504;2023-12-07T13:50:50;4.60;83.77
71173;DHT22;58875;51.996;4.504;2023-12-07T13:53:15;4.56;83.77
71173;DHT22;58875;51.996;4.504;2023-12-07T13:55:41;4.56;83.89
71173;DHT22;58875;51.996;4.504;2023-12-07T13:58:07;4.56;83.82
71173;DHT22;58875;51.996;4.504;2023-12-07T14:00:37;4.61;83.93
71173;DHT22;58875;51.996;4.504;2023-12-07T14:03:03;4.60;83.94
71173;DHT22;58875;51.996;4.504;2023-12-07T14:05:31;4.56;83.99
71173;DHT22;58875;51.996;4.504;2023-12-07T14:07:57;4.60;83.94
71173;DHT22;58875;51.996;4.504;2023-12-07T14:10:22;4.67;83.97
71173;DHT22;58875;51.996;4.504;2023-12-07T14:12:48;4.62;83.78
71173;DHT22;58875;51.996;4.504;2023-12-07T14:15:16;4.53;83.98
71173;DHT22;58875;51.996;4.504;2023-12-07T14:17:42;4.53;84.26
71173;DHT22;58875;51.996;4.504;2023-12-07T14:20:08;4.46;84.24
71173;DHT22;58875;51.996;4.504;2023-12-07T14:22:34;4.51;84.15
71173;DHT22;58875;51.996;4.504;2023-12-07T14:25:03;4.57;83.98
71173;DHT22;58875;51.996;4.504;2023-12-07T14:27:29;4.57;84.06
71173;DHT22;58875;51.996;4.504;2023-12-07T14:29:55;4.58;83.98
71173;DHT22;58875;51.996;4.504;2023-12-07T14:32:21;4.51;83.84
71173;DHT22;58875;51.996;4.504;2023-12-07T14:34:47;4.50;84.17
71173;DHT22;58875;51.996;4.504;2023-12-07T14:37:13;4.51;84.27
71173;DHT22;58875;51.996;4.504;2023-12-07T14:39:47;4.50;84.15
71173;DHT22;58875;51.996;4.504;2023-12-07T14:42:15;4.50;84.13
71173;DHT22;58875;51.996;4.504;2023-12-07T14:44:44;4.51;84.18
71173;DHT22;58875;51.996;4.504;2023-12-07T14:47:13;4.56;84.01
71173;DHT22;58875;51.996;4.504;2023-12-07T14:49:42;4.58;84.07
71173;DHT22;58875;51.996;4.504;2023-12-07T14:52:07;4.54;84.16
71173;DHT22;58875;51.996;4.504;2023-12-07T14:54:36;4.58;84.13
71173;DHT22;58875;51.996;4.504;2023-12-07T14:57:01;4.51;84.00
71173;DHT22;58875;51.996;4.504;2023-12-07T14:59:29;4.47;84.25
71173;DHT22;58875;51.996;4.504;2023-12-07T15:01:55;4.47;84.28
71173;DHT22;58875;51.996;4.504;2023-12-07T15:04:24;4.46;84.29
71173;DHT22;58875;51.996;4.504;2023-12-07T15:06:54;4.46;84.17
71173;DHT22;58875;51.996;4.504;2023-12-07T15:09:23;4.41;84.47
71173;DHT22;58875;51.996;4.504;2023-12-07T15:11:48;4.41;84.45
71173;DHT22;58875;51.996;4.504;2023-12-07T15:14:15;4.37;84.43
71173;DHT22;58875;51.996;4.504;2023-12-07T15:16:43;4.29;84.41
71173;DHT22;58875;51.996;4.504;2023-12-07T15:19:11;4.30;84.60
71173;DHT22;58875;51.996;4.504;2023-12-07T15:21:37;4.21;84.68
71173;DHT22;58875;51.996;4.504;2023-12-07T15:24:03;4.23;84.57
71173;DHT22;58875;51.996;4.504;2023-12-07T15:26:40;4.19;84.72
71173;DHT22;58875;51.996;4.504;2023-12-07T15:29:14;4.13;84.84
71173;DHT22;58875;51.996;4.504;2023-12-07T15:31:42;4.16;84.77
71173;DHT22;58875;51.996;4.504;2023-12-07T15:34:09;4.11;84.86
71173;DHT22;58875;51.996;4.504;2023-12-07T15:36:42;4.16;84.79
71173;DHT22;58875;51.996;4.504;2023-12-07T15:39:10;4.14;84.59
71173;DHT22;58875;51.996;4.504;2023-12-07T15:41:41;4.03;84.93
71173;DHT22;58875;51.996;4.504;2023-12-07T15:44:08;4.07;84.86
71173;DHT22;58875;51.996;4.504;2023-12-07T15:46:34;4.14;84.80
71173;DHT22;58875;51.996;4.504;2023-12-07T15:49:02;4.06;84.83
71173;DHT22;58875;51.996;4.504;2023-12-07T15:51:27;4.06;84.70
71173;DHT22;58875;51.996;4.504;2023-12-07T15:53:53;4.06;84.81
71173;DHT22;58875;51.996;4.504;2023-12-07T15:56:20;4.07;84.70
71173;DHT22;58875;51.996;4.504;2023-12-07T15:58:46;3.99;84.87
71173;DHT22;58875;51.996;4.504;2023-12-07T16:01:12;4.02;84.99
71173;DHT22;58875;51.996;4.504;2023-12-07T16:03:37;3.93;85.22